sensor_id;sensor_type;location;lat;lon;timestamp;P1;durP1;ratioP1;P2;durP2;ratioP2
8694;SDS011;65580;49.446;6.854;2023-11-19T00:02:58;4.07;;;2.35;;
8694;SDS011;65580;49.446;6.854;2023-11-19T00:07:01;6.97;;;2.40;;
8694;SDS011;65580;49.446;6.854;2023-11-19T00:11:06;3.60;;;1.95;;
8694;SDS011;65580;49.446;6.854;2023-11-19T00:15:10;3.33;;;2.33;;
8694;SDS011;65580;49.446;6.854;2023-11-19T00:19:13;3.95;;;2.28;;
8694;SDS011;65580;49.446;6.854;2023-11-19T00:23:16;4.25;;;2.20;;
8694;SDS011;65580;49.446;6.854;2023-11-19T00:27:19;3.97;;;2.15;;
8694;SDS011;65580;49.446;6.854;2023-11-19T00:31:23;4.45;;;2.13;;
8694;SDS011;65580;49.446;6.854;2023-11-19T00:35:29;4.25;;;2.30;;
8694;SDS011;65580;49.446;6.854;2023-11-19T00:39:33;4.95;;;3.45;;
8694;SDS011;65580;49.446;6.854;2023-11-19T00:43:35;5.88;;;3.13;;
8694;SDS011;65580;49.446;6.854;2023-11-19T00:47:40;5.60;;;2.83;;
8694;SDS011;65580;49.446;6.854;2023-11-19T00:51:43;12.98;;;5.43;;
8694;SDS011;65580;49.446;6.854;2023-11-19T00:55:47;21.13;;;6.53;;
8694;SDS011;65580;49.446;6.854;2023-11-19T00:59:49;10.48;;;4.93;;
8694;SDS011;65580;49.446;6.854;2023-11-19T01:03:54;12.60;;;5.57;;
8694;SDS011;65580;49.446;6.854;2023-11-19T01:07:58;28.83;;;7.97;;
8694;SDS011;65580;49.446;6.854;2023-11-19T01:12:01;14.23;;;5.38;;
8694;SDS011;65580;49.446;6.854;2023-11-19T01:16:05;12.52;;;5.50;;
8694;SDS011;65580;49.446;6.854;2023-11-19T01:20:11;27.10;;;7.20;;
8694;SDS011;65580;49.446;6.854;2023-11-19T01:24:14;14.43;;;5.45;;
8694;SDS011;65580;49.446;6.854;2023-11-19T01:28:17;13.90;;;5.57;;
8694;SDS011;65580;49.446;6.854;2023-11-19T01:32:20;10.88;;;6.00;;
8694;SDS011;65580;49.446;6.854;2023-11-19T01:36:26;9.52;;;5.25;;
8694;SDS011;65580;49.446;6.854;2023-11-19T01:40:29;10.02;;;6.13;;
8694;SDS011;65580;49.446;6.854;2023-11-19T01:44:32;10.90;;;6.75;;
8694;SDS011;65580;49.446;6.854;2023-11-19T01:48:35;9.40;;;6.00;;
8694;SDS011;65580;49.446;6.854;2023-11-19T01:52:42;12.30;;;5.35;;
8694;SDS011;65580;49.446;6.854;2023-11-19T01:56:44;8.57;;;5.45;;
8694;SDS011;65580;49.446;6.854;2023-11-19T02:00:47;12.18;;;6.88;;
8694;SDS011;65580;49.446;6.854;2023-11-19T02:04:50;13.75;;;7.32;;
8694;SDS011;65580;49.446;6.854;2023-11-19T02:08:55;10.80;;;5.90;;
8694;SDS011;65580;49.446;6.854;2023-11-19T02:12:58;9.95;;;6.45;;
8694;SDS011;65580;49.446;6.854;2023-11-19T02:17:04;13.85;;;6.30;;
8694;SDS011;65580;49.446;6.854;2023-11-19T02:21:07;8.70;;;4.97;;
8694;SDS011;65580;49.446;6.854;2023-11-19T02:25:15;7.57;;;5.10;;
8694;SDS011;65580;49.446;6.854;2023-11-19T02:29:21;7.25;;;3.90;;
8694;SDS011;65580;49.446;6.854;2023-11-19T02:33:24;12.75;;;4.50;;
8694;SDS011;65580;49.446;6.854;2023-11-19T02:37:27;6.38;;;4.10;;
8694;SDS011;65580;49.446;6.854;2023-11-19T02:41:29;7.07;;;4.13;;
8694;SDS011;65580;49.446;6.854;2023-11-19T02:45:34;7.68;;;4.78;;
8694;SDS011;65580;49.446;6.854;2023-11-19T02:49:37;15.85;;;5.63;;
8694;SDS011;65580;49.446;6.854;2023-11-19T02:53:40;12.23;;;5.88;;
8694;SDS011;65580;49.446;6.854;2023-11-19T02:57:45;6.03;;;3.03;;
8694;SDS011;65580;49.446;6.854;2023-11-19T03:01:51;5.55;;;2.78;;
8694;SDS011;65580;49.446;6.854;2023-11-19T03:05:54;8.15;;;3.00;;
8694;SDS011;65580;49.446;6.854;2023-11-19T03:09:57;8.50;;;3.40;;
8694;SDS011;65580;49.446;6.854;2023-11-19T03:14:00;5.18;;;3.05;;
8694;SDS011;65580;49.446;6.854;2023-11-19T03:18:05;7.22;;;3.45;;
8694;SDS011;65580;49.446;6.854;2023-11-19T03:22:08;6.18;;;3.25;;
8694;SDS011;65580;49.446;6.854;2023-11-19T03:30:15;10.13;;;3.63;;
8694;SDS011;65580;49.446;6.854;2023-11-19T03:34:20;6.35;;;3.30;;
8694;SDS011;65580;49.446;6.854;2023-11-19T03:38:23;7.50;;;3.17;;
8694;SDS011;65580;49.446;6.854;2023-11-19T03:42:26;6.68;;;3.13;;
8694;SDS011;65580;49.446;6.854;2023-11-19T03:46:29;11.25;;;3.40;;
8694;SDS011;65580;49.446;6.854;2023-11-19T03:50:34;4.22;;;2.40;;
8694;SDS011;65580;49.446;6.854;2023-11-19T03:54:36;4.18;;;2.78;;
8694;SDS011;65580;49.446;6.854;2023-11-19T03:58:39;7.63;;;3.60;;
8694;SDS011;65580;49.446;6.854;2023-11-19T04:02:42;7.65;;;3.33;;
8694;SDS011;65580;49.446;6.854;2023-11-19T04:06:47;8.25;;;3.22;;
8694;SDS011;65580;49.446;6.854;2023-11-19T04:10:49;5.85;;;2.65;;
8694;SDS011;65580;49.446;6.854;2023-11-19T04:14:52;6.07;;;2.55;;
8694;SDS011;65580;49.446;6.854;2023-11-19T04:18:58;6.15;;;2.80;;
8694;SDS011;65580;49.446;6.854;2023-11-19T04:23:02;8.90;;;2.42;;
8694;SDS011;65580;49.446;6.854;2023-11-19T04:27:05;8.18;;;2.78;;
8694;SDS011;65580;49.446;6.854;2023-11-19T04:31:08;6.05;;;2.65;;
8694;SDS011;65580;49.446;6.854;2023-11-19T04:35:11;7.55;;;2.45;;
8694;SDS011;65580;49.446;6.854;2023-11-19T04:39:15;11.55;;;2.50;;
8694;SDS011;65580;49.446;6.854;2023-11-19T04:43:19;5.97;;;2.53;;
8694;SDS011;65580;49.446;6.854;2023-11-19T04:47:22;9.27;;;2.35;;
8694;SDS011;65580;49.446;6.854;2023-11-19T04:51:26;5.95;;;2.50;;
8694;SDS011;65580;49.446;6.854;2023-11-19T04:55:30;6.55;;;2.88;;
8694;SDS011;65580;49.446;6.854;2023-11-19T04:59:34;13.90;;;3.28;;
8694;SDS011;65580;49.446;6.854;2023-11-19T05:03:37;9.15;;;2.13;;
8694;SDS011;65580;49.446;6.854;2023-11-19T05:07:40;7.43;;;2.25;;
8694;SDS011;65580;49.446;6.854;2023-11-19T05:11:44;9.38;;;2.22;;
8694;SDS011;65580;49.446;6.854;2023-11-19T05:15:50;6.55;;;2.15;;
8694;SDS011;65580;49.446;6.854;2023-11-19T05:19:53;2.78;;;1.67;;
8694;SDS011;65580;49.446;6.854;2023-11-19T05:23:59;5.72;;;2.33;;
8694;SDS011;65580;49.446;6.854;2023-11-19T05:28:03;9.80;;;2.17;;
8694;SDS011;65580;49.446;6.854;2023-11-19T05:32:06;6.88;;;1.92;;
8694;SDS011;65580;49.446;6.854;2023-11-19T05:36:12;9.65;;;1.75;;
8694;SDS011;65580;49.446;6.854;2023-11-19T05:40:15;5.60;;;1.80;;
8694;SDS011;65580;49.446;6.854;2023-11-19T05:44:20;4.32;;;1.80;;
8694;SDS011;65580;49.446;6.854;2023-11-19T05:48:23;5.90;;;1.60;;
8694;SDS011;65580;49.446;6.854;2023-11-19T05:52:27;4.75;;;1.55;;
8694;SDS011;65580;49.446;6.854;2023-11-19T05:56:34;9.77;;;2.22;;
8694;SDS011;65580;49.446;6.854;2023-11-19T06:00:39;7.60;;;1.88;;
8694;SDS011;65580;49.446;6.854;2023-11-19T06:04:42;9.85;;;1.92;;
8694;SDS011;65580;49.446;6.854;2023-11-19T06:08:49;5.38;;;1.92;;
8694;SDS011;65580;49.446;6.854;2023-11-19T06:12:52;7.53;;;2.17;;
8694;SDS011;65580;49.446;6.854;2023-11-19T06:16:58;6.45;;;2.22;;
8694;SDS011;65580;49.446;6.854;2023-11-19T06:21:01;8.60;;;2.70;;
8694;SDS011;65580;49.446;6.854;2023-11-19T06:25:04;5.97;;;2.50;;
8694;SDS011;65580;49.446;6.854;2023-11-19T06:29:09;6.35;;;2.63;;
8694;SDS011;65580;49.446;6.854;2023-11-19T06:33:13;8.57;;;2.50;;
8694;SDS011;65580;49.446;6.854;2023-11-19T06:37:16;4.53;;;2.22;;
8694;SDS011;65580;49.446;6.854;2023-11-19T06:41:20;10.38;;;2.55;;
8694;SDS011;65580;49.446;6.854;2023-11-19T06:45:23;6.13;;;2.15;;
8694;SDS011;65580;49.446;6.854;2023-11-19T06:49:28;6.18;;;2.28;;
8694;SDS011;65580;49.446;6.854;2023-11-19T06:53:31;9.15;;;2.40;;
8694;SDS011;65580;49.446;6.854;2023-11-19T06:57:34;10.40;;;2.30;;
8694;SDS011;65580;49.446;6.854;2023-11-19T07:01:37;6.72;;;2.22;;
8694;SDS011;65580;49.446;6.854;2023-11-19T07:05:41;9.13;;;2.30;;
8694;SDS011;65580;49.446;6.854;2023-11-19T07:09:45;7.18;;;2.35;;
8694;SDS011;65580;49.446;6.854;2023-11-19T07:13:48;5.90;;;2.25;;
8694;SDS011;65580;49.446;6.854;2023-11-19T07:17:51;6.57;;;2.70;;
8694;SDS011;65580;49.446;6.854;2023-11-19T07:21:59;7.88;;;2.53;;
8694;SDS011;65580;49.446;6.854;2023-11-19T07:26:04;8.35;;;2.20;;
8694;SDS011;65580;49.446;6.854;2023-11-19T07:30:09;5.18;;;2.17;;
8694;SDS011;65580;49.446;6.854;2023-11-19T07:34:12;6.28;;;2.25;;
8694;SDS011;65580;49.446;6.854;2023-11-19T07:38:16;10.60;;;2.90;;
8694;SDS011;65580;49.446;6.854;2023-11-19T07:42:19;9.23;;;2.53;;
8694;SDS011;65580;49.446;6.854;2023-11-19T07:46:22;3.58;;;1.92;;
8694;SDS011;65580;49.446;6.854;2023-11-19T07:50:26;8.93;;;2.25;;
8694;SDS011;65580;49.446;6.854;2023-11-19T07:54:35;5.80;;;2.00;;
8694;SDS011;65580;49.446;6.854;2023-11-19T07:58:38;10.48;;;2.40;;
8694;SDS011;65580;49.446;6.854;2023-11-19T08:02:41;6.05;;;2.50;;
8694;SDS011;65580;49.446;6.854;2023-11-19T08:06:45;10.30;;;3.30;;
8694;SDS011;65580;49.446;6.854;2023-11-19T08:10:49;6.70;;;2.30;;
8694;SDS011;65580;49.446;6.854;2023-11-19T08:14:52;9.82;;;2.30;;
8694;SDS011;65580;49.446;6.854;2023-11-19T08:18:55;10.40;;;2.55;;
8694;SDS011;65580;49.446;6.854;2023-11-19T08:22:59;12.15;;;2.72;;
8694;SDS011;65580;49.446;6.854;2023-11-19T08:27:04;5.57;;;1.90;;
8694;SDS011;65580;49.446;6.854;2023-11-19T08:31:07;7.28;;;1.90;;
8694;SDS011;65580;49.446;6.854;2023-11-19T08:35:10;8.35;;;1.90;;
8694;SDS011;65580;49.446;6.854;2023-11-19T08:39:13;9.55;;;1.90;;
8694;SDS011;65580;49.446;6.854;2023-11-19T08:47:21;11.70;;;1.85;;
8694;SDS011;65580;49.446;6.854;2023-11-19T08:51:25;7.03;;;2.17;;
8694;SDS011;65580;49.446;6.854;2023-11-19T08:55:29;9.48;;;1.80;;
8694;SDS011;65580;49.446;6.854;2023-11-19T08:59:34;7.38;;;2.33;;
8694;SDS011;65580;49.446;6.854;2023-11-19T09:03:38;8.55;;;1.50;;
8694;SDS011;65580;49.446;6.854;2023-11-19T09:11:44;4.78;;;1.30;;
8694;SDS011;65580;49.446;6.854;2023-11-19T09:15:49;4.55;;;1.10;;
8694;SDS011;65580;49.446;6.854;2023-11-19T09:19:52;4.22;;;1.10;;
8694;SDS011;65580;49.446;6.854;2023-11-19T09:23:54;9.77;;;1.60;;
8694;SDS011;65580;49.446;6.854;2023-11-19T09:27:57;7.40;;;1.30;;
8694;SDS011;65580;49.446;6.854;2023-11-19T09:32:01;8.48;;;1.63;;
8694;SDS011;65580;49.446;6.854;2023-11-19T09:36:06;7.20;;;1.35;;
8694;SDS011;65580;49.446;6.854;2023-11-19T09:40:18;6.50;;;1.63;;
8694;SDS011;65580;49.446;6.854;2023-11-19T09:44:22;7.07;;;1.38;;
8694;SDS011;65580;49.446;6.854;2023-11-19T09:48:26;6.68;;;1.25;;
8694;SDS011;65580;49.446;6.854;2023-11-19T09:52:29;8.23;;;1.60;;
8694;SDS011;65580;49.446;6.854;2023-11-19T09:56:32;6.57;;;1.48;;
8694;SDS011;65580;49.446;6.854;2023-11-19T10:00:36;8.02;;;1.52;;
8694;SDS011;65580;49.446;6.854;2023-11-19T10:04:40;8.48;;;2.05;;
8694;SDS011;65580;49.446;6.854;2023-11-19T10:08:46;7.50;;;1.80;;
8694;SDS011;65580;49.446;6.854;2023-11-19T10:12:50;8.82;;;1.70;;
8694;SDS011;65580;49.446;6.854;2023-11-19T10:16:56;6.30;;;1.67;;
8694;SDS011;65580;49.446;6.854;2023-11-19T10:21:02;8.35;;;1.60;;
8694;SDS011;65580;49.446;6.854;2023-11-19T10:25:05;8.63;;;1.60;;
8694;SDS011;65580;49.446;6.854;2023-11-19T10:29:10;9.68;;;1.92;;
8694;SDS011;65580;49.446;6.854;2023-11-19T10:33:15;12.18;;;2.60;;
8694;SDS011;65580;49.446;6.854;2023-11-19T10:37:29;12.02;;;1.73;;
8694;SDS011;65580;49.446;6.854;2023-11-19T10:41:34;6.95;;;1.50;;
8694;SDS011;65580;49.446;6.854;2023-11-19T10:45:37;6.88;;;1.70;;
8694;SDS011;65580;49.446;6.854;2023-11-19T10:49:41;6.72;;;1.42;;
8694;SDS011;65580;49.446;6.854;2023-11-19T10:53:45;4.80;;;1.75;;
8694;SDS011;65580;49.446;6.854;2023-11-19T10:57:48;8.00;;;1.35;;
8694;SDS011;65580;49.446;6.854;2023-11-19T11:01:52;8.77;;;1.60;;
8694;SDS011;65580;49.446;6.854;2023-11-19T11:05:56;7.45;;;1.40;;
8694;SDS011;65580;49.446;6.854;2023-11-19T11:10:02;7.28;;;1.30;;
8694;SDS011;65580;49.446;6.854;2023-11-19T11:14:07;7.43;;;1.60;;
8694;SDS011;65580;49.446;6.854;2023-11-19T11:18:11;15.93;;;1.70;;
8694;SDS011;65580;49.446;6.854;2023-11-19T11:22:14;8.15;;;1.23;;
8694;SDS011;65580;49.446;6.854;2023-11-19T11:26:41;8.57;;;1.70;;
8694;SDS011;65580;49.446;6.854;2023-11-19T11:31:03;16.77;;;4.90;;
8694;SDS011;65580;49.446;6.854;2023-11-19T11:35:17;11.32;;;4.07;;
8694;SDS011;65580;49.446;6.854;2023-11-19T11:39:27;11.13;;;2.55;;
8694;SDS011;65580;49.446;6.854;2023-11-19T11:43:45;7.55;;;1.60;;
8694;SDS011;65580;49.446;6.854;2023-11-19T11:52:22;7.95;;;1.48;;
8694;SDS011;65580;49.446;6.854;2023-11-19T11:56:32;6.65;;;1.08;;
8694;SDS011;65580;49.446;6.854;2023-11-19T12:00:38;8.75;;;1.50;;
8694;SDS011;65580;49.446;6.854;2023-11-19T12:04:42;5.95;;;1.05;;
8694;SDS011;65580;49.446;6.854;2023-11-19T12:08:46;10.10;;;1.67;;
8694;SDS011;65580;49.446;6.854;2023-11-19T12:12:52;7.63;;;1.02;;
8694;SDS011;65580;49.446;6.854;2023-11-19T12:16:59;7.15;;;1.30;;
8694;SDS011;65580;49.446;6.854;2023-11-19T12:21:06;7.78;;;1.48;;
8694;SDS011;65580;49.446;6.854;2023-11-19T12:25:11;6.63;;;1.20;;
8694;SDS011;65580;49.446;6.854;2023-11-19T12:29:19;7.53;;;1.30;;
8694;SDS011;65580;49.446;6.854;2023-11-19T12:33:25;10.20;;;2.10;;
8694;SDS011;65580;49.446;6.854;2023-11-19T12:37:28;8.90;;;1.65;;
8694;SDS011;65580;49.446;6.854;2023-11-19T12:41:32;4.43;;;1.00;;
8694;SDS011;65580;49.446;6.854;2023-11-19T12:45:51;5.97;;;1.30;;
8694;SDS011;65580;49.446;6.854;2023-11-19T12:49:59;5.22;;;1.40;;
8694;SDS011;65580;49.446;6.854;2023-11-19T12:54:01;7.60;;;1.48;;
8694;SDS011;65580;49.446;6.854;2023-11-19T12:58:06;4.75;;;0.88;;
8694;SDS011;65580;49.446;6.854;2023-11-19T13:02:09;5.28;;;1.30;;
8694;SDS011;65580;49.446;6.854;2023-11-19T13:06:13;4.15;;;1.00;;
8694;SDS011;65580;49.446;6.854;2023-11-19T13:10:17;7.57;;;1.30;;
8694;SDS011;65580;49.446;6.854;2023-11-19T13:14:21;9.30;;;1.45;;
8694;SDS011;65580;49.446;6.854;2023-11-19T13:18:24;6.72;;;1.42;;
8694;SDS011;65580;49.446;6.854;2023-11-19T13:22:54;6.13;;;1.20;;
8694;SDS011;65580;49.446;6.854;2023-11-19T13:26:58;9.25;;;1.17;;
8694;SDS011;65580;49.446;6.854;2023-11-19T13:31:01;6.55;;;1.10;;
8694;SDS011;65580;49.446;6.854;2023-11-19T13:35:04;4.95;;;0.77;;
8694;SDS011;65580;49.446;6.854;2023-11-19T13:39:11;6.53;;;1.15;;
8694;SDS011;65580;49.446;6.854;2023-11-19T13:43:14;6.72;;;1.40;;
8694;SDS011;65580;49.446;6.854;2023-11-19T13:47:17;9.20;;;1.38;;
8694;SDS011;65580;49.446;6.854;2023-11-19T13:51:20;13.85;;;1.65;;
8694;SDS011;65580;49.446;6.854;2023-11-19T13:55:24;8.00;;;1.60;;
8694;SDS011;65580;49.446;6.854;2023-11-19T13:59:27;6.78;;;1.20;;
8694;SDS011;65580;49.446;6.854;2023-11-19T14:03:30;8.88;;;1.10;;
8694;SDS011;65580;49.446;6.854;2023-11-19T14:07:35;3.92;;;1.20;;
8694;SDS011;65580;49.446;6.854;2023-11-19T14:11:39;5.15;;;0.98;;
8694;SDS011;65580;49.446;6.854;2023-11-19T14:15:43;8.93;;;1.20;;
8694;SDS011;65580;49.446;6.854;2023-11-19T14:19:50;9.60;;;1.52;;
8694;SDS011;65580;49.446;6.854;2023-11-19T14:23:53;5.50;;;1.10;;
8694;SDS011;65580;49.446;6.854;2023-11-19T14:27:57;6.88;;;1.50;;
8694;SDS011;65580;49.446;6.854;2023-11-19T14:32:00;6.65;;;1.10;;
8694;SDS011;65580;49.446;6.854;2023-11-19T14:36:04;12.35;;;1.65;;
8694;SDS011;65580;49.446;6.854;2023-11-19T14:40:08;9.25;;;3.00;;
8694;SDS011;65580;49.446;6.854;2023-11-19T14:44:14;6.22;;;1.30;;
8694;SDS011;65580;49.446;6.854;2023-11-19T14:48:17;5.95;;;1.48;;
8694;SDS011;65580;49.446;6.854;2023-11-19T14:52:21;3.60;;;1.00;;
8694;SDS011;65580;49.446;6.854;2023-11-19T14:56:24;8.80;;;1.30;;
8694;SDS011;65580;49.446;6.854;2023-11-19T15:00:28;9.23;;;2.30;;
8694;SDS011;65580;49.446;6.854;2023-11-19T15:04:31;6.47;;;1.55;;
8694;SDS011;65580;49.446;6.854;2023-11-19T15:08:35;5.22;;;1.33;;
8694;SDS011;65580;49.446;6.854;2023-11-19T15:12:38;5.88;;;1.67;;
8694;SDS011;65580;49.446;6.854;2023-11-19T15:16:44;11.35;;;1.60;;
8694;SDS011;65580;49.446;6.854;2023-11-19T15:20:48;8.43;;;1.63;;
8694;SDS011;65580;49.446;6.854;2023-11-19T15:24:51;9.57;;;2.00;;
8694;SDS011;65580;49.446;6.854;2023-11-19T15:28:54;12.48;;;1.70;;
8694;SDS011;65580;49.446;6.854;2023-11-19T15:33:04;5.47;;;1.60;;
8694;SDS011;65580;49.446;6.854;2023-11-19T15:37:07;8.85;;;2.25;;
8694;SDS011;65580;49.446;6.854;2023-11-19T15:41:10;9.77;;;1.50;;
8694;SDS011;65580;49.446;6.854;2023-11-19T15:45:14;12.95;;;2.10;;
8694;SDS011;65580;49.446;6.854;2023-11-19T15:49:19;14.15;;;2.25;;
8694;SDS011;65580;49.446;6.854;2023-11-19T15:53:22;12.65;;;2.67;;
8694;SDS011;65580;49.446;6.854;2023-11-19T15:57:25;16.50;;;2.30;;
8694;SDS011;65580;49.446;6.854;2023-11-19T16:01:28;13.13;;;3.10;;
8694;SDS011;65580;49.446;6.854;2023-11-19T16:05:33;10.68;;;2.63;;
8694;SDS011;65580;49.446;6.854;2023-11-19T16:09:36;14.45;;;2.70;;
8694;SDS011;65580;49.446;6.854;2023-11-19T16:13:39;14.30;;;3.05;;
8694;SDS011;65580;49.446;6.854;2023-11-19T16:17:42;15.55;;;3.60;;
8694;SDS011;65580;49.446;6.854;2023-11-19T16:21:47;16.98;;;3.80;;
8694;SDS011;65580;49.446;6.854;2023-11-19T16:25:50;13.48;;;4.22;;
8694;SDS011;65580;49.446;6.854;2023-11-19T16:29:52;12.32;;;3.53;;
8694;SDS011;65580;49.446;6.854;2023-11-19T16:33:55;13.02;;;2.10;;
8694;SDS011;65580;49.446;6.854;2023-11-19T16:38:00;12.25;;;2.33;;
8694;SDS011;65580;49.446;6.854;2023-11-19T16:42:03;10.30;;;1.60;;
8694;SDS011;65580;49.446;6.854;2023-11-19T16:46:07;7.78;;;1.55;;
8694;SDS011;65580;49.446;6.854;2023-11-19T16:50:10;10.25;;;1.95;;
8694;SDS011;65580;49.446;6.854;2023-11-19T16:54:15;11.23;;;1.85;;
8694;SDS011;65580;49.446;6.854;2023-11-19T16:58:19;10.23;;;1.70;;
8694;SDS011;65580;49.446;6.854;2023-11-19T17:02:24;12.00;;;1.85;;
8694;SDS011;65580;49.446;6.854;2023-11-19T17:06:27;7.35;;;1.83;;
8694;SDS011;65580;49.446;6.854;2023-11-19T17:10:31;10.00;;;2.60;;
8694;SDS011;65580;49.446;6.854;2023-11-19T17:14:34;15.18;;;3.28;;
8694;SDS011;65580;49.446;6.854;2023-11-19T17:18:41;9.35;;;2.40;;
8694;SDS011;65580;49.446;6.854;2023-11-19T17:22:43;11.30;;;2.65;;
8694;SDS011;65580;49.446;6.854;2023-11-19T17:26:48;10.65;;;2.15;;
8694;SDS011;65580;49.446;6.854;2023-11-19T17:30:51;12.25;;;2.35;;
8694;SDS011;65580;49.446;6.854;2023-11-19T17:34:58;16.10;;;2.33;;
8694;SDS011;65580;49.446;6.854;2023-11-19T17:39:01;10.63;;;1.63;;
8694;SDS011;65580;49.446;6.854;2023-11-19T17:43:06;15.13;;;2.58;;
8694;SDS011;65580;49.446;6.854;2023-11-19T17:47:09;11.40;;;1.90;;
8694;SDS011;65580;49.446;6.854;2023-11-19T17:51:14;14.55;;;1.98;;
8694;SDS011;65580;49.446;6.854;2023-11-19T17:55:18;8.75;;;1.80;;
8694;SDS011;65580;49.446;6.854;2023-11-19T17:59:22;10.27;;;1.55;;
8694;SDS011;65580;49.446;6.854;2023-11-19T18:03:26;9.23;;;2.00;;
8694;SDS011;65580;49.446;6.854;2023-11-19T18:07:31;19.65;;;2.70;;
8694;SDS011;65580;49.446;6.854;2023-11-19T18:11:35;12.70;;;2.78;;
8694;SDS011;65580;49.446;6.854;2023-11-19T18:15:40;12.13;;;2.35;;
8694;SDS011;65580;49.446;6.854;2023-11-19T18:19:43;14.60;;;1.90;;
8694;SDS011;65580;49.446;6.854;2023-11-19T18:23:46;12.00;;;2.05;;
8694;SDS011;65580;49.446;6.854;2023-11-19T18:27:49;13.43;;;1.83;;
8694;SDS011;65580;49.446;6.854;2023-11-19T18:31:53;11.70;;;2.50;;
8694;SDS011;65580;49.446;6.854;2023-11-19T18:35:57;10.50;;;2.08;;
8694;SDS011;65580;49.446;6.854;2023-11-19T18:40:00;14.75;;;2.05;;
8694;SDS011;65580;49.446;6.854;2023-11-19T18:44:03;14.23;;;2.10;;
8694;SDS011;65580;49.446;6.854;2023-11-19T18:48:09;15.27;;;2.22;;
8694;SDS011;65580;49.446;6.854;2023-11-19T18:52:13;14.45;;;2.35;;
8694;SDS011;65580;49.446;6.854;2023-11-19T18:56:16;14.73;;;2.28;;
8694;SDS011;65580;49.446;6.854;2023-11-19T19:00:22;14.27;;;2.00;;
8694;SDS011;65580;49.446;6.854;2023-11-19T19:04:28;15.43;;;2.60;;
8694;SDS011;65580;49.446;6.854;2023-11-19T19:08:31;18.92;;;2.38;;
8694;SDS011;65580;49.446;6.854;2023-11-19T19:16:38;17.77;;;2.00;;
8694;SDS011;65580;49.446;6.854;2023-11-19T19:20:43;13.98;;;1.88;;
8694;SDS011;65580;49.446;6.854;2023-11-19T19:24:47;13.88;;;2.40;;
8694;SDS011;65580;49.446;6.854;2023-11-19T19:28:51;8.80;;;1.90;;
8694;SDS011;65580;49.446;6.854;2023-11-19T19:32:54;23.35;;;2.85;;
8694;SDS011;65580;49.446;6.854;2023-11-19T19:36:59;22.40;;;2.45;;
8694;SDS011;65580;49.446;6.854;2023-11-19T19:41:02;16.23;;;2.13;;
8694;SDS011;65580;49.446;6.854;2023-11-19T19:45:06;22.35;;;2.58;;
8694;SDS011;65580;49.446;6.854;2023-11-19T19:49:10;17.95;;;2.53;;
8694;SDS011;65580;49.446;6.854;2023-11-19T19:53:14;15.93;;;2.67;;
8694;SDS011;65580;49.446;6.854;2023-11-19T19:57:17;13.25;;;2.45;;
8694;SDS011;65580;49.446;6.854;2023-11-19T20:01:20;14.82;;;2.28;;
8694;SDS011;65580;49.446;6.854;2023-11-19T20:05:23;14.70;;;2.20;;
8694;SDS011;65580;49.446;6.854;2023-11-19T20:09:27;10.13;;;1.70;;
8694;SDS011;65580;49.446;6.854;2023-11-19T20:13:30;9.13;;;1.60;;
8694;SDS011;65580;49.446;6.854;2023-11-19T20:17:33;14.65;;;2.38;;
8694;SDS011;65580;49.446;6.854;2023-11-19T20:21:36;21.23;;;3.35;;
8694;SDS011;65580;49.446;6.854;2023-11-19T20:25:41;20.10;;;5.38;;
8694;SDS011;65580;49.446;6.854;2023-11-19T20:29:44;19.67;;;5.70;;
8694;SDS011;65580;49.446;6.854;2023-11-19T20:33:47;16.20;;;2.70;;
8694;SDS011;65580;49.446;6.854;2023-11-19T20:37:50;18.35;;;2.20;;
8694;SDS011;65580;49.446;6.854;2023-11-19T20:41:54;12.52;;;2.05;;
8694;SDS011;65580;49.446;6.854;2023-11-19T20:45:57;12.45;;;2.17;;
8694;SDS011;65580;49.446;6.854;2023-11-19T20:54:04;21.13;;;3.03;;
8694;SDS011;65580;49.446;6.854;2023-11-19T20:58:09;16.17;;;2.38;;
8694;SDS011;65580;49.446;6.854;2023-11-19T21:02:12;17.73;;;2.40;;
8694;SDS011;65580;49.446;6.854;2023-11-19T21:06:16;15.35;;;2.10;;
8694;SDS011;65580;49.446;6.854;2023-11-19T21:10:21;13.35;;;2.08;;
8694;SDS011;65580;49.446;6.854;2023-11-19T21:14:27;16.77;;;2.08;;
8694;SDS011;65580;49.446;6.854;2023-11-19T21:18:29;17.90;;;2.15;;
8694;SDS011;65580;49.446;6.854;2023-11-19T21:22:32;12.40;;;2.20;;
8694;SDS011;65580;49.446;6.854;2023-11-19T21:26:38;15.57;;;2.50;;
8694;SDS011;65580;49.446;6.854;2023-11-19T21:30:42;18.73;;;2.55;;
8694;SDS011;65580;49.446;6.854;2023-11-19T21:34:46;15.52;;;2.13;;
8694;SDS011;65580;49.446;6.854;2023-11-19T21:38:49;17.65;;;2.67;;
8694;SDS011;65580;49.446;6.854;2023-11-19T21:42:51;19.38;;;2.90;;
8694;SDS011;65580;49.446;6.854;2023-11-19T21:46:56;21.98;;;2.55;;
8694;SDS011;65580;49.446;6.854;2023-11-19T21:51:02;24.08;;;2.63;;
8694;SDS011;65580;49.446;6.854;2023-11-19T21:55:06;19.05;;;2.50;;
8694;SDS011;65580;49.446;6.854;2023-11-19T21:59:10;21.92;;;2.78;;
8694;SDS011;65580;49.446;6.854;2023-11-19T22:03:15;16.25;;;2.53;;
8694;SDS011;65580;49.446;6.854;2023-11-19T22:07:17;16.27;;;2.35;;
8694;SDS011;65580;49.446;6.854;2023-11-19T22:11:20;25.10;;;2.75;;
8694;SDS011;65580;49.446;6.854;2023-11-19T22:15:25;16.38;;;1.77;;
8694;SDS011;65580;49.446;6.854;2023-11-19T22:19:30;17.55;;;2.40;;
8694;SDS011;65580;49.446;6.854;2023-11-19T22:23:32;23.33;;;2.35;;
8694;SDS011;65580;49.446;6.854;2023-11-19T22:27:36;15.88;;;1.92;;
8694;SDS011;65580;49.446;6.854;2023-11-19T22:31:38;13.80;;;2.10;;
8694;SDS011;65580;49.446;6.854;2023-11-19T22:35:43;17.02;;;2.22;;
8694;SDS011;65580;49.446;6.854;2023-11-19T22:39:45;24.75;;;2.72;;
8694;SDS011;65580;49.446;6.854;2023-11-19T22:43:48;20.40;;;2.55;;
8694;SDS011;65580;49.446;6.854;2023-11-19T22:47:51;21.75;;;2.53;;
8694;SDS011;65580;49.446;6.854;2023-11-19T22:51:55;20.00;;;2.20;;
8694;SDS011;65580;49.446;6.854;2023-11-19T22:55:58;15.63;;;1.80;;
8694;SDS011;65580;49.446;6.854;2023-11-19T23:00:01;18.15;;;2.17;;
8694;SDS011;65580;49.446;6.854;2023-11-19T23:04:06;13.60;;;2.10;;
8694;SDS011;65580;49.446;6.854;2023-11-19T23:08:10;17.35;;;2.20;;
8694;SDS011;65580;49.446;6.854;2023-11-19T23:12:13;14.05;;;2.40;;
8694;SDS011;65580;49.446;6.854;2023-11-19T23:16:17;16.00;;;2.83;;
8694;SDS011;65580;49.446;6.854;2023-11-19T23:20:24;15.30;;;1.90;;
8694;SDS011;65580;49.446;6.854;2023-11-19T23:24:29;19.95;;;2.40;;
8694;SDS011;65580;49.446;6.854;2023-11-19T23:28:32;17.48;;;2.05;;
8694;SDS011;65580;49.446;6.854;2023-11-19T23:32:35;11.20;;;1.90;;
8694;SDS011;65580;49.446;6.854;2023-11-19T23:36:38;13.45;;;1.95;;
8694;SDS011;65580;49.446;6.854;2023-11-19T23:40:42;9.10;;;1.42;;
8694;SDS011;65580;49.446;6.854;2023-11-19T23:44:45;12.65;;;2.08;;
8694;SDS011;65580;49.446;6.854;2023-11-19T23:48:48;17.45;;;1.85;;
8694;SDS011;65580;49.446;6.854;2023-11-19T23:52:56;13.18;;;2.00;;
8694;SDS011;65580;49.446;6.854;2023-11-19T23:57:00;17.33;;;1.90;;
